createdAt,value
2022-12-15T00:02:16.983Z,93400.94
2022-12-15T00:05:02.150Z,93402.53
2022-12-15T00:07:48.720Z,93410.13
2022-12-15T00:10:34.242Z,93403.91
2022-12-15T00:13:19.395Z,93402.47
2022-12-15T00:16:04.880Z,93398.25
2022-12-15T00:18:49.998Z,93401.66
2022-12-15T00:21:35.508Z,93393.25
2022-12-15T00:24:22.160Z,93388.41
2022-12-15T00:27:07.598Z,93386.16
2022-12-15T00:29:53.082Z,93403.03
2022-12-15T00:32:38.475Z,93382.75
2022-12-15T00:35:24.362Z,93380.13
2022-12-15T00:38:09.800Z,93373.47
2022-12-15T00:40:37.691Z,93373.81
2022-12-15T00:43:04.260Z,93370.41
2022-12-15T00:45:49.521Z,93377.00
2022-12-15T00:48:16.219Z,93373.59
2022-12-15T00:50:53.509Z,93382.66
2022-12-15T00:53:38.603Z,93373.03
2022-12-15T00:56:26.043Z,93360.19
2022-12-15T00:59:11.318Z,93360.19
2022-12-15T01:01:56.696Z,93369.97
2022-12-15T01:04:42.165Z,93389.06
2022-12-15T01:07:27.463Z,93389.84
2022-12-15T01:10:12.990Z,93385.44
2022-12-15T01:12:59.571Z,93384.41
2022-12-15T01:15:44.979Z,93399.84
2022-12-15T01:18:30.689Z,93419.16
2022-12-15T01:20:57.946Z,93426.19
2022-12-15T01:23:24.798Z,93424.16
2022-12-15T01:25:52.130Z,93418.56
2022-12-15T01:28:20.855Z,93420.41
2022-12-15T01:30:47.529Z,93427.66
2022-12-15T01:33:14.508Z,93425.81
2022-12-15T01:35:41.459Z,93426.31
2022-12-15T01:38:09.009Z,93415.00
2022-12-15T01:40:50.059Z,93422.78
2022-12-15T01:43:18.774Z,93423.13
2022-12-15T01:45:50.882Z,93428.94
2022-12-15T01:48:23.150Z,93429.94
2022-12-15T01:50:58.355Z,93415.88
2022-12-15T01:53:25.935Z,93427.47
2022-12-15T01:55:52.556Z,93422.47
2022-12-15T01:58:22.154Z,93432.94
2022-12-15T02:00:50.147Z,93420.88
2022-12-15T02:03:17.580Z,93413.06
2022-12-15T02:05:45.404Z,93420.09
2022-12-15T02:08:12.088Z,93434.53
2022-12-15T02:10:54.827Z,93432.84
2022-12-15T02:13:29.082Z,93445.00
2022-12-15T02:16:05.266Z,93446.84
2022-12-15T02:18:38.187Z,93449.25
2022-12-15T02:21:11.275Z,93460.25
2022-12-15T02:24:13.186Z,93463.13
2022-12-15T02:27:15.777Z,93465.41
2022-12-15T02:30:09.027Z,93464.09
2022-12-15T02:32:43.648Z,93473.09
2022-12-15T02:35:15.017Z,93474.69
2022-12-15T02:37:42.028Z,93477.31
2022-12-15T02:40:11.584Z,93478.91
2022-12-15T02:42:43.541Z,93472.66
2022-12-15T02:45:14.342Z,93464.84
2022-12-15T02:47:47.591Z,93460.63
2022-12-15T02:50:31.945Z,93471.88
2022-12-15T02:53:10.187Z,93469.25
2022-12-15T02:55:46.628Z,93471.97
2022-12-15T02:58:26.128Z,93474.34
2022-12-15T03:01:01.508Z,93465.84
2022-12-15T03:03:31.723Z,93469.84
2022-12-15T03:06:00.937Z,93463.03
2022-12-15T03:08:27.524Z,93462.81
2022-12-15T03:10:55.328Z,93471.88
2022-12-15T03:13:21.878Z,93469.69
2022-12-15T03:15:48.420Z,93482.28
2022-12-15T03:18:16.338Z,93482.09
2022-12-15T03:20:42.890Z,93493.25
2022-12-15T03:23:09.644Z,93493.19
2022-12-15T03:25:36.207Z,93501.16
2022-12-15T03:28:02.766Z,93515.03
2022-12-15T03:30:29.381Z,93509.00
2022-12-15T03:32:55.942Z,93509.81
2022-12-15T03:35:23.883Z,93513.22
2022-12-15T03:37:50.418Z,93522.84
2022-12-15T03:40:17.100Z,93529.94
2022-12-15T03:42:50.991Z,93535.34
2022-12-15T03:45:18.846Z,93538.28
2022-12-15T03:47:46.301Z,93540.22
2022-12-15T03:50:15.205Z,93542.47
2022-12-15T03:52:43.520Z,93533.56
2022-12-15T03:55:11.651Z,93532.94
2022-12-15T03:57:38.356Z,93536.81
2022-12-15T04:00:06.304Z,93520.88
2022-12-15T04:02:32.975Z,93522.28
2022-12-15T04:04:59.655Z,93526.91
2022-12-15T04:07:26.173Z,93525.59
2022-12-15T04:09:54.068Z,93516.25
2022-12-15T04:12:20.584Z,93516.84
2022-12-15T04:14:47.122Z,93522.84
2022-12-15T04:17:16.276Z,93528.06
2022-12-15T04:20:01.525Z,93534.91
2022-12-15T04:22:28.106Z,93547.16
2022-12-15T04:25:14.596Z,93555.00
2022-12-15T04:28:01.651Z,93563.63
2022-12-15T04:30:48.900Z,93567.84
2022-12-15T04:33:34.964Z,93567.84
2022-12-15T04:36:20.955Z,93558.41
2022-12-15T04:39:06.379Z,93559.19
2022-12-15T04:41:53.131Z,93547.94
2022-12-15T04:44:38.372Z,93554.78
2022-12-15T04:47:23.650Z,93546.13
2022-12-15T04:50:10.097Z,93548.75
2022-12-15T04:52:55.387Z,93556.38
2022-12-15T04:55:40.876Z,93560.00
2022-12-15T04:58:27.950Z,93563.41
2022-12-15T05:01:15.435Z,93575.66
2022-12-15T05:04:01.243Z,93580.69
2022-12-15T05:06:47.210Z,93585.09
2022-12-15T05:09:32.586Z,93586.50
2022-12-15T05:12:17.916Z,93582.69
2022-12-15T05:15:04.597Z,93579.94
2022-12-15T05:17:50.017Z,93570.28
2022-12-15T05:20:35.194Z,93571.50
2022-12-15T05:23:20.526Z,93570.06
2022-12-15T05:26:05.882Z,93568.25
2022-12-15T05:28:51.247Z,93573.25
2022-12-15T05:31:38.099Z,93559.19
2022-12-15T05:34:05.685Z,93565.44
2022-12-15T05:36:32.680Z,93577.47
2022-12-15T05:38:59.356Z,93583.50
2022-12-15T05:41:25.910Z,93598.56
2022-12-15T05:43:52.501Z,93608.00
2022-12-15T05:46:20.411Z,93600.19
2022-12-15T05:48:47.278Z,93601.78
2022-12-15T05:51:14.567Z,93600.75
2022-12-15T05:53:41.877Z,93597.56
2022-12-15T05:56:10.328Z,93598.38
2022-12-15T05:58:44.553Z,93596.97
2022-12-15T06:01:13.697Z,93601.78
2022-12-15T06:03:42.601Z,93591.31
2022-12-15T06:06:11.489Z,93593.94
2022-12-15T06:08:40.589Z,93593.94
2022-12-15T06:11:08.210Z,93590.31
2022-12-15T06:13:35.270Z,93610.63
2022-12-15T06:16:04.078Z,93599.78
2022-12-15T06:18:32.538Z,93608.00
2022-12-15T06:21:02.298Z,93607.22
2022-12-15T06:23:29.064Z,93621.06
2022-12-15T06:25:56.587Z,93621.06
2022-12-15T06:28:26.473Z,93624.47
2022-12-15T06:30:54.068Z,93619.88
2022-12-15T06:33:22.050Z,93628.09
2022-12-15T06:35:49.263Z,93623.28
2022-12-15T06:38:17.156Z,93631.28
2022-12-15T06:40:43.772Z,93633.63
2022-12-15T06:43:11.638Z,93643.75
2022-12-15T06:45:38.186Z,93637.72
2022-12-15T06:48:05.485Z,93639.13
2022-12-15T06:50:32.033Z,93632.88
2022-12-15T06:52:59.163Z,93637.19
2022-12-15T06:55:27.130Z,93641.00
2022-12-15T06:57:53.715Z,93640.78
2022-12-15T07:00:20.287Z,93649.00
2022-12-15T07:02:48.368Z,93652.19
2022-12-15T07:05:16.936Z,93657.63
2022-12-15T07:07:43.518Z,93651.19
2022-12-15T07:10:11.001Z,93644.97
2022-12-15T07:12:38.992Z,93655.41
2022-12-15T07:15:08.038Z,93666.25
2022-12-15T07:17:35.230Z,93673.28
2022-12-15T07:20:01.820Z,93666.88
2022-12-15T07:22:28.579Z,93665.25
2022-12-15T07:24:55.142Z,93681.94
2022-12-15T07:27:21.697Z,93667.72
2022-12-15T07:29:49.614Z,93666.16
2022-12-15T07:32:16.177Z,93673.16
2022-12-15T07:34:42.761Z,93670.00
2022-12-15T07:37:09.376Z,93673.41
2022-12-15T07:39:36.243Z,93670.56
2022-12-15T07:42:02.976Z,93663.69
2022-12-15T07:44:29.607Z,93661.88
2022-12-15T07:46:57.576Z,93654.25
2022-12-15T07:49:24.243Z,93661.72
2022-12-15T07:51:50.927Z,93659.47
2022-12-15T07:54:17.505Z,93671.13
2022-12-15T07:56:44.210Z,93669.53
2022-12-15T07:59:17.127Z,93673.97
2022-12-15T08:01:43.848Z,93677.59
2022-12-15T08:04:12.109Z,93681.00
2022-12-15T08:06:38.649Z,93696.88
2022-12-15T08:09:05.177Z,93698.59
2022-12-15T08:11:35.049Z,93705.19
2022-12-15T08:14:03.437Z,93713.53
2022-12-15T08:16:31.073Z,93712.31
2022-12-15T08:18:57.690Z,93717.81
2022-12-15T08:21:25.718Z,93719.56
2022-12-15T08:23:52.336Z,93738.91
2022-12-15T08:26:19.563Z,93739.91
2022-12-15T08:28:46.843Z,93739.66
2022-12-15T08:31:16.640Z,93746.53
2022-12-15T08:33:44.656Z,93734.91
2022-12-15T08:36:13.732Z,93745.66
2022-12-15T08:38:43.082Z,93739.56
2022-12-15T08:41:11.323Z,93738.50
2022-12-15T08:43:43.992Z,93743.09
2022-12-15T08:46:15.082Z,93750.72
2022-12-15T08:48:41.683Z,93747.31
2022-12-15T08:51:08.315Z,93750.13
2022-12-15T08:53:35.013Z,93751.41
2022-12-15T08:56:04.613Z,93746.72
2022-12-15T08:58:31.236Z,93751.41
2022-12-15T09:01:00.534Z,93748.06
2022-12-15T09:03:27.392Z,93754.13
2022-12-15T09:05:54.086Z,93750.28
2022-12-15T09:08:20.647Z,93756.81
2022-12-15T09:10:47.195Z,93751.97
2022-12-15T09:13:20.497Z,93749.53
2022-12-15T09:16:11.349Z,93757.94
2022-12-15T09:18:38.262Z,93755.34
2022-12-15T09:21:07.435Z,93751.38
2022-12-15T09:23:36.201Z,93749.53
2022-12-15T09:26:04.819Z,93744.50
2022-12-15T09:28:33.163Z,93741.09
2022-12-15T09:31:03.044Z,93736.09
2022-12-15T09:33:30.141Z,93729.25
2022-12-15T09:35:57.013Z,93727.44
2022-12-15T09:38:23.576Z,93718.84
2022-12-15T09:40:50.203Z,93738.50
2022-12-15T09:43:46.249Z,93730.25
2022-12-15T09:46:28.227Z,93724.00
2022-12-15T09:48:58.806Z,93710.97
2022-12-15T09:51:32.353Z,93708.16
2022-12-15T09:53:59.391Z,93724.19
2022-12-15T09:56:37.597Z,93721.13
2022-12-15T09:59:14.555Z,93719.81
2022-12-15T10:01:52.498Z,93720.59
2022-12-15T10:04:30.619Z,93712.19
2022-12-15T10:07:08.599Z,93714.00
2022-12-15T10:09:37.303Z,93701.13
2022-12-15T10:12:11.091Z,93694.69
2022-12-15T10:14:41.827Z,93695.91
2022-12-15T10:17:21.453Z,93699.31
2022-12-15T10:19:55.130Z,93685.06
2022-12-15T10:22:24.574Z,93682.25
2022-12-15T10:28:13.655Z,93679.81
2022-12-15T10:30:49.044Z,93684.81
2022-12-15T10:33:21.466Z,93680.44
2022-12-15T10:35:48.895Z,93672.63
2022-12-15T10:38:24.527Z,93657.59
2022-12-15T10:40:54.770Z,93654.75
2022-12-15T10:43:35.527Z,93649.34
2022-12-15T10:46:07.510Z,93640.50
2022-12-15T10:48:36.807Z,93637.47
2022-12-15T10:51:21.705Z,93639.84
2022-12-15T10:53:51.424Z,93641.47
2022-12-15T10:56:25.978Z,93643.91
2022-12-15T10:58:57.818Z,93641.50
2022-12-15T11:01:26.258Z,93646.31
2022-12-15T11:03:55.235Z,93654.72
2022-12-15T11:06:24.466Z,93652.31
2022-12-15T11:08:53.335Z,93647.31
2022-12-15T11:11:45.649Z,93654.56
2022-12-15T11:14:15.163Z,93665.16
2022-12-15T11:16:54.349Z,93648.66
2022-12-15T11:19:39.811Z,93658.88
2022-12-15T11:22:13.471Z,93655.53
2022-12-15T11:24:45.307Z,93651.69
2022-12-15T11:27:22.908Z,93656.66
2022-12-15T11:29:59.082Z,93651.34
2022-12-15T11:32:28.911Z,93632.81
2022-12-15T11:34:56.859Z,93629.19
2022-12-15T11:37:41.401Z,93617.75
2022-12-15T11:40:32.985Z,93612.69
2022-12-15T11:43:12.707Z,93613.69
2022-12-15T11:45:42.545Z,93624.16
2022-12-15T11:48:12.186Z,93611.09
2022-12-15T11:50:51.084Z,93613.50
2022-12-15T11:53:41.465Z,93604.00
2022-12-15T11:56:14.626Z,93583.38
2022-12-15T11:58:56.525Z,93579.72
2022-12-15T12:01:47.356Z,93575.72
2022-12-15T12:04:24.427Z,93568.91
2022-12-15T12:07:07.503Z,93565.06
2022-12-15T12:09:36.458Z,93567.66
2022-12-15T12:12:13.205Z,93562.44
2022-12-15T12:14:50.659Z,93575.06
2022-12-15T12:17:27.206Z,93570.75
2022-12-15T12:19:57.825Z,93558.56
2022-12-15T12:22:30.140Z,93568.22
2022-12-15T12:25:02.284Z,93577.50
2022-12-15T12:27:37.523Z,93572.31
2022-12-15T12:30:11.933Z,93567.94
2022-12-15T12:32:47.425Z,93557.88
2022-12-15T12:35:41.411Z,93553.03
2022-12-15T12:38:11.888Z,93547.59
2022-12-15T12:41:02.732Z,93539.22
2022-12-15T12:43:34.567Z,93550.41
2022-12-15T12:46:07.977Z,93541.13
2022-12-15T12:48:38.497Z,93536.50
2022-12-15T12:51:16.614Z,93535.91
2022-12-15T12:53:44.635Z,93539.09
2022-12-15T12:56:40.140Z,93533.09
2022-12-15T12:59:36.933Z,93524.25
2022-12-15T13:02:46.580Z,93521.22
2022-12-15T13:05:24.295Z,93520.66
2022-12-15T13:07:55.445Z,93517.19
2022-12-15T13:10:24.798Z,93516.22
2022-12-15T13:15:42.909Z,93519.41
2022-12-15T13:18:16.058Z,93523.84
2022-12-15T13:20:44.738Z,93515.78
2022-12-15T13:23:36.422Z,93510.78
2022-12-15T13:26:19.117Z,93518.41
2022-12-15T13:28:50.674Z,93516.59
2022-12-15T13:31:32.334Z,93517.16
2022-12-15T13:34:12.164Z,93514.56
2022-12-15T13:36:56.119Z,93520.81
2022-12-15T13:39:48.120Z,93516.59
2022-12-15T13:45:44.406Z,93513.53
2022-12-15T13:48:27.280Z,93507.53
2022-12-15T13:51:02.675Z,93501.50
2022-12-15T13:53:38.168Z,93496.28
2022-12-15T13:56:18.720Z,93494.25
2022-12-15T13:58:57.165Z,93496.06
2022-12-15T14:01:31.735Z,93494.25
2022-12-15T14:04:03.828Z,93489.03
2022-12-15T14:06:35.994Z,93481.28
2022-12-15T14:09:03.575Z,93488.22
2022-12-15T14:14:25.875Z,93483.81
2022-12-15T14:16:58.470Z,93479.38
2022-12-15T14:19:25.570Z,93473.38
2022-12-15T14:21:54.009Z,93474.38
2022-12-15T14:24:42.514Z,93479.63
2022-12-15T14:27:09.128Z,93482.66
2022-12-15T14:29:37.053Z,93484.13
2022-12-15T14:32:04.631Z,93483.06
2022-12-15T14:34:33.495Z,93484.25
2022-12-15T14:37:03.377Z,93487.22
2022-12-15T14:39:36.109Z,93494.25
2022-12-15T14:42:04.321Z,93494.25
2022-12-15T14:44:38.403Z,93493.31
2022-12-15T14:47:16.503Z,93492.66
2022-12-15T14:49:45.430Z,93490.41
2022-12-15T14:52:25.796Z,93493.03
2022-12-15T14:54:57.518Z,93482.78
2022-12-15T14:57:26.531Z,93488.69
2022-12-15T14:59:53.552Z,93490.84
2022-12-15T15:02:24.891Z,93475.06
2022-12-15T15:03:05.230Z,93513.63
2022-12-15T15:03:16.532Z,93515.56
2022-12-15T15:05:00.607Z,93484.28
2022-12-15T15:07:28.793Z,93482.91
2022-12-15T15:09:55.918Z,93482.53
2022-12-15T15:12:24.735Z,93482.66
2022-12-15T15:14:54.575Z,93483.06
2022-12-15T15:17:30.744Z,93487.28
2022-12-15T15:20:01.009Z,93490.41
2022-12-15T15:22:35.030Z,93495.00
2022-12-15T15:25:02.371Z,93486.59
2022-12-15T15:27:35.486Z,93491.44
2022-12-15T15:30:17.710Z,93485.59
2022-12-15T15:32:56.152Z,93481.34
2022-12-15T15:35:24.711Z,93481.44
2022-12-15T15:37:52.242Z,93477.13
2022-12-15T15:40:18.931Z,93474.66
2022-12-15T15:42:45.610Z,93470.38
2022-12-15T15:45:16.027Z,93476.81
2022-12-15T15:47:47.155Z,93457.88
2022-12-15T15:50:17.671Z,93453.13
2022-12-15T15:52:44.604Z,93453.41
2022-12-15T15:55:16.297Z,93442.19
2022-12-15T15:57:42.821Z,93445.09
2022-12-15T16:00:21.441Z,93439.06
2022-12-15T16:02:48.326Z,93433.84
2022-12-15T16:05:16.498Z,93441.25
2022-12-15T16:07:46.522Z,93442.84
2022-12-15T16:10:15.834Z,93442.06
2022-12-15T16:12:45.361Z,93445.38
2022-12-15T16:15:18.181Z,93435.88
2022-12-15T16:17:45.179Z,93434.88
2022-12-15T16:20:13.089Z,93436.47
2022-12-15T16:22:41.971Z,93431.47
2022-12-15T16:25:21.593Z,93441.97
2022-12-15T16:27:48.395Z,93427.84
2022-12-15T16:30:17.943Z,93428.63
2022-12-15T16:32:44.527Z,93439.56
2022-12-15T16:35:11.438Z,93436.66
2022-12-15T16:37:39.780Z,93435.69
2022-12-15T16:40:16.550Z,93429.66
2022-12-15T16:42:44.969Z,93426.22
2022-12-15T16:45:16.551Z,93425.72
2022-12-15T16:47:43.666Z,93422.69
2022-12-15T16:50:13.012Z,93421.25
2022-12-15T16:52:40.817Z,93420.91
2022-12-15T16:55:17.727Z,93421.22
2022-12-15T16:57:44.436Z,93418.41
2022-12-15T17:00:19.247Z,93413.31
2022-12-15T17:02:46.140Z,93416.09
2022-12-15T17:05:12.850Z,93410.28
2022-12-15T17:07:39.462Z,93406.28
2022-12-15T17:10:07.386Z,93421.22
2022-12-15T17:12:35.602Z,93418.13
2022-12-15T17:15:02.727Z,93419.28
2022-12-15T17:17:31.046Z,93413.25
2022-12-15T17:20:28.200Z,93418.03
2022-12-15T17:22:47.632Z,93413.84
2022-12-15T17:25:31.899Z,93409.22
2022-12-15T17:28:13.860Z,93411.81
2022-12-15T17:30:40.593Z,93411.59
2022-12-15T17:33:17.294Z,93411.81
2022-12-15T17:35:44.048Z,93411.59
2022-12-15T17:38:14.869Z,93410.59
2022-12-15T17:40:41.434Z,93412.41
2022-12-15T17:43:13.460Z,93396.72
2022-12-15T17:45:40.024Z,93401.75
2022-12-15T17:48:07.102Z,93401.75
2022-12-15T17:50:33.746Z,93398.34
2022-12-15T17:53:01.485Z,93401.88
2022-12-15T17:55:34.740Z,93403.13
2022-12-15T17:58:05.725Z,93400.72
2022-12-15T18:00:33.660Z,93396.31
2022-12-15T18:03:01.007Z,93398.91
2022-12-15T18:05:30.005Z,93394.50
2022-12-15T18:07:58.541Z,93385.66
2022-12-15T18:10:29.181Z,93391.66
2022-12-15T18:12:56.168Z,93391.66
2022-12-15T18:15:24.768Z,93389.06
2022-12-15T18:17:52.872Z,93379.19
2022-12-15T18:20:19.885Z,93376.94
2022-12-15T18:22:47.707Z,93367.59
2022-12-15T18:25:16.933Z,93366.34
2022-12-15T18:27:43.685Z,93348.16
2022-12-15T18:30:15.684Z,93353.88
2022-12-15T18:32:43.056Z,93353.09
2022-12-15T18:35:20.278Z,93346.06
2022-12-15T18:37:47.305Z,93337.22
2022-12-15T18:40:15.868Z,93329.38
2022-12-15T18:42:43.656Z,93322.34
2022-12-15T18:45:21.960Z,93331.75
2022-12-15T18:47:49.986Z,93323.72
2022-12-15T18:50:20.942Z,93322.13
2022-12-15T18:52:48.661Z,93321.91
2022-12-15T18:55:19.400Z,93315.88
2022-12-15T18:57:46.784Z,93313.28
2022-12-15T19:00:24.645Z,93304.28
2022-12-15T19:02:53.706Z,93292.38
2022-12-15T19:05:32.490Z,93296.59
2022-12-15T19:08:08.324Z,93304.19
2022-12-15T19:10:36.276Z,93305.22
2022-12-15T19:13:03.613Z,93298.97
2022-12-15T19:15:30.468Z,93296.59
2022-12-15T19:18:15.769Z,93299.28
2022-12-15T19:21:02.585Z,93296.38
2022-12-15T19:23:29.287Z,93279.91
2022-12-15T19:25:56.193Z,93274.25
2022-12-15T19:28:23.991Z,93274.81
2022-12-15T19:30:52.091Z,93270.84
2022-12-15T19:33:19.713Z,93267.22
2022-12-15T19:35:50.977Z,93268.22
2022-12-15T19:38:22.524Z,93268.22
2022-12-15T19:40:49.401Z,93279.25
2022-12-15T19:43:17.286Z,93274.25
2022-12-15T19:45:44.167Z,93281.06
2022-12-15T19:48:12.504Z,93267.22
2022-12-15T19:50:41.073Z,93267.78
2022-12-15T19:53:15.497Z,93267.22
2022-12-15T19:55:42.162Z,93267.00
2022-12-15T19:58:27.091Z,93253.13
2022-12-15T20:00:55.900Z,93252.34
2022-12-15T20:03:22.642Z,93257.34
2022-12-15T20:05:51.477Z,93256.31
2022-12-15T20:08:23.266Z,93259.53
2022-12-15T20:10:50.553Z,93254.72
2022-12-15T20:13:17.516Z,93244.28
2022-12-15T20:15:44.227Z,93237.47
2022-12-15T20:18:11.614Z,93238.28
2022-12-15T20:20:39.173Z,93236.47
2022-12-15T20:23:10.940Z,93228.84
2022-12-15T20:25:40.706Z,93235.44
2022-12-15T20:28:10.204Z,93235.66
2022-12-15T20:30:37.065Z,93238.06
2022-12-15T20:33:05.100Z,93235.88
2022-12-15T20:35:34.597Z,93230.22
2022-12-15T20:38:05.352Z,93226.81
2022-12-15T20:40:32.094Z,93233.63
2022-12-15T20:43:00.002Z,93226.81
2022-12-15T20:45:27.075Z,93232.59
2022-12-15T20:47:55.800Z,93229.25
2022-12-15T20:50:28.126Z,93235.88
2022-12-15T20:52:54.956Z,93234.88
2022-12-15T20:55:21.798Z,93232.03
2022-12-15T20:57:48.780Z,93230.44
2022-12-15T21:00:20.617Z,93234.41
2022-12-15T21:02:48.747Z,93232.81
2022-12-15T21:05:17.736Z,93223.41
2022-12-15T21:07:44.844Z,93229.00
2022-12-15T21:10:12.878Z,93223.78
2022-12-15T21:12:40.680Z,93225.78
2022-12-15T21:15:16.516Z,93214.78
2022-12-15T21:17:43.861Z,93219.78
2022-12-15T21:20:11.770Z,93207.25
2022-12-15T21:22:38.588Z,93218.81
2022-12-15T21:25:16.102Z,93214.16
2022-12-15T21:27:42.659Z,93208.75
2022-12-15T21:30:17.150Z,93226.41
2022-12-15T21:32:43.797Z,93220.72
2022-12-15T21:35:13.870Z,93227.31
2022-12-15T21:37:42.073Z,93222.22
2022-12-15T21:40:16.177Z,93221.66
2022-12-15T21:42:42.901Z,93235.06
2022-12-15T21:45:15.645Z,93233.81
2022-12-15T21:48:01.071Z,93230.19
2022-12-15T21:50:28.108Z,93239.63
2022-12-15T21:52:55.158Z,93239.97
2022-12-15T21:55:24.210Z,93233.72
2022-12-15T21:57:51.698Z,93236.09
2022-12-15T22:00:21.803Z,93241.09
2022-12-15T22:02:49.958Z,93231.47
2022-12-15T22:05:19.209Z,93231.22
2022-12-15T22:07:45.809Z,93235.09
2022-12-15T22:10:12.834Z,93232.94
2022-12-15T22:12:40.498Z,93236.59
2022-12-15T22:15:13.796Z,93224.09
2022-12-15T22:17:42.438Z,93214.66
2022-12-15T22:20:14.783Z,93214.44
2022-12-15T22:22:41.910Z,93209.84
2022-12-15T22:25:15.983Z,93204.78
2022-12-15T22:27:43.695Z,93211.03
2022-12-15T22:30:14.774Z,93208.63
2022-12-15T22:32:42.741Z,93206.94
2022-12-15T22:35:13.735Z,93218.53
2022-12-15T22:37:40.282Z,93214.09
2022-12-15T22:40:08.007Z,93213.09
2022-12-15T22:42:35.116Z,93204.44
2022-12-15T22:45:02.313Z,93206.03
2022-12-15T22:47:28.885Z,93208.19
2022-12-15T22:49:56.852Z,93204.75
2022-12-15T22:52:23.408Z,93211.88
2022-12-15T22:54:50.259Z,93203.19
2022-12-15T22:57:21.398Z,93213.66
2022-12-15T23:00:00.237Z,93214.78
2022-12-15T23:02:28.032Z,93206.38
2022-12-15T23:04:55.256Z,93201.50
2022-12-15T23:07:23.327Z,93205.25
2022-12-15T23:10:09.856Z,93205.81
2022-12-15T23:12:36.449Z,93205.03
2022-12-15T23:15:21.967Z,93206.84
2022-12-15T23:17:48.525Z,93204.34
2022-12-15T23:20:15.421Z,93204.56
2022-12-15T23:22:43.324Z,93202.19
2022-12-15T23:25:10.189Z,93208.66
2022-12-15T23:27:36.769Z,93203.66
2022-12-15T23:30:03.973Z,93206.41
2022-12-15T23:32:30.530Z,93209.00
2022-12-15T23:34:57.186Z,93201.16
2022-12-15T23:37:23.750Z,93195.16
2022-12-15T23:39:51.607Z,93200.16
2022-12-15T23:42:18.322Z,93199.69
2022-12-15T23:44:44.893Z,93200.50
2022-12-15T23:47:11.516Z,93210.16
2022-12-15T23:49:38.115Z,93201.72
2022-12-15T23:52:04.954Z,93198.91
2022-12-15T23:54:31.617Z,93206.75
2022-12-15T23:56:59.575Z,93211.75
2022-12-15T23:59:26.110Z,93212.56
